sensor_id;sensor_type;location;lat;lon;timestamp;pressure;altitude;pressure_sealevel;temperature;humidity
60817;BME280;51921;51.518;-3.188;2023-08-06T00:00:25;101251.85;;;10.87;100.00
60817;BME280;51921;51.518;-3.188;2023-08-06T00:02:51;101248.73;;;11.47;100.00
60817;BME280;51921;51.518;-3.188;2023-08-06T00:05:17;101255.87;;;11.59;100.00
60817;BME280;51921;51.518;-3.188;2023-08-06T00:07:41;101261.82;;;12.26;100.00
60817;BME280;51921;51.518;-3.188;2023-08-06T00:10:07;101266.32;;;12.54;100.00
60817;BME280;51921;51.518;-3.188;2023-08-06T00:12:32;101272.26;;;11.71;100.00
60817;BME280;51921;51.518;-3.188;2023-08-06T00:14:58;101275.82;;;12.18;100.00
60817;BME280;51921;51.518;-3.188;2023-08-06T00:17:23;101281.16;;;11.31;100.00
60817;BME280;51921;51.518;-3.188;2023-08-06T00:19:49;101286.90;;;12.80;100.00
60817;BME280;51921;51.518;-3.188;2023-08-06T00:22:14;101287.95;;;13.01;99.34
60817;BME280;51921;51.518;-3.188;2023-08-06T00:24:39;101288.16;;;12.75;98.69
60817;BME280;51921;51.518;-3.188;2023-08-06T00:27:05;101292.85;;;13.72;92.12
60817;BME280;51921;51.518;-3.188;2023-08-06T00:29:30;101295.94;;;12.47;99.44
60817;BME280;51921;51.518;-3.188;2023-08-06T00:31:56;101296.69;;;12.60;96.58
60817;BME280;51921;51.518;-3.188;2023-08-06T00:34:21;101290.21;;;13.86;91.79
60817;BME280;51921;51.518;-3.188;2023-08-06T00:36:47;101294.20;;;13.29;94.73
60817;BME280;51921;51.518;-3.188;2023-08-06T00:39:12;101290.33;;;13.77;90.61
60817;BME280;51921;51.518;-3.188;2023-08-06T00:41:38;101293.38;;;12.80;93.67
60817;BME280;51921;51.518;-3.188;2023-08-06T00:44:03;101292.49;;;12.31;100.00
60817;BME280;51921;51.518;-3.188;2023-08-06T00:46:28;101281.93;;;11.23;100.00
60817;BME280;51921;51.518;-3.188;2023-08-06T00:48:55;101284.14;;;11.70;100.00
60817;BME280;51921;51.518;-3.188;2023-08-06T00:51:20;101289.29;;;11.48;100.00
60817;BME280;51921;51.518;-3.188;2023-08-06T00:53:45;101285.63;;;11.65;100.00
60817;BME280;51921;51.518;-3.188;2023-08-06T00:56:10;101289.93;;;10.77;100.00
60817;BME280;51921;51.518;-3.188;2023-08-06T00:58:36;101291.22;;;12.13;100.00
60817;BME280;51921;51.518;-3.188;2023-08-06T01:01:01;101291.55;;;12.62;100.00
60817;BME280;51921;51.518;-3.188;2023-08-06T01:03:27;101293.64;;;13.20;100.00
60817;BME280;51921;51.518;-3.188;2023-08-06T01:05:52;101295.56;;;12.44;98.88
60817;BME280;51921;51.518;-3.188;2023-08-06T01:08:28;101300.15;;;12.28;100.00
60817;BME280;51921;51.518;-3.188;2023-08-06T01:10:53;101302.61;;;12.30;100.00
60817;BME280;51921;51.518;-3.188;2023-08-06T01:13:16;101304.92;;;11.92;100.00
60817;BME280;51921;51.518;-3.188;2023-08-06T01:15:41;101311.23;;;12.84;100.00
60817;BME280;51921;51.518;-3.188;2023-08-06T01:17:59;101310.36;;;13.33;96.12
60817;BME280;51921;51.518;-3.188;2023-08-06T01:20:28;101308.79;;;13.23;96.77
60817;BME280;51921;51.518;-3.188;2023-08-06T01:22:50;101311.14;;;11.81;100.00
60817;BME280;51921;51.518;-3.188;2023-08-06T01:25:16;101313.21;;;12.22;100.00
60817;BME280;51921;51.518;-3.188;2023-08-06T01:27:46;101314.79;;;12.31;100.00
60817;BME280;51921;51.518;-3.188;2023-08-06T01:30:12;101316.43;;;12.68;97.93
60817;BME280;51921;51.518;-3.188;2023-08-06T01:32:34;101320.62;;;12.52;97.95
60817;BME280;51921;51.518;-3.188;2023-08-06T01:34:59;101324.00;;;13.34;93.88
60817;BME280;51921;51.518;-3.188;2023-08-06T01:37:23;101324.96;;;13.47;91.45
60817;BME280;51921;51.518;-3.188;2023-08-06T01:39:48;101322.64;;;13.97;88.52
60817;BME280;51921;51.518;-3.188;2023-08-06T01:42:14;101321.69;;;13.80;89.07
60817;BME280;51921;51.518;-3.188;2023-08-06T01:44:39;101322.24;;;13.75;88.09
60817;BME280;51921;51.518;-3.188;2023-08-06T01:47:05;101321.00;;;13.17;87.93
60817;BME280;51921;51.518;-3.188;2023-08-06T01:49:30;101322.04;;;13.23;88.35
60817;BME280;51921;51.518;-3.188;2023-08-06T01:51:55;101328.30;;;12.92;90.17
60817;BME280;51921;51.518;-3.188;2023-08-06T01:54:21;101327.19;;;13.67;86.67
60817;BME280;51921;51.518;-3.188;2023-08-06T01:56:46;101327.13;;;13.72;85.16
60817;BME280;51921;51.518;-3.188;2023-08-06T01:59:12;101327.04;;;13.01;89.27
60817;BME280;51921;51.518;-3.188;2023-08-06T02:01:37;101330.18;;;12.84;89.09
60817;BME280;51921;51.518;-3.188;2023-08-06T02:04:02;101331.90;;;12.91;88.34
60817;BME280;51921;51.518;-3.188;2023-08-06T02:06:28;101329.40;;;13.09;88.33
60817;BME280;51921;51.518;-3.188;2023-08-06T02:08:53;101330.42;;;12.37;90.94
60817;BME280;51921;51.518;-3.188;2023-08-06T02:11:19;101337.32;;;13.04;88.74
60817;BME280;51921;51.518;-3.188;2023-08-06T02:13:46;101340.08;;;13.14;89.23
60817;BME280;51921;51.518;-3.188;2023-08-06T02:16:10;101343.31;;;12.92;88.36
60817;BME280;51921;51.518;-3.188;2023-08-06T02:18:35;101341.71;;;13.16;88.31
60817;BME280;51921;51.518;-3.188;2023-08-06T02:21:01;101337.73;;;12.00;92.21
60817;BME280;51921;51.518;-3.188;2023-08-06T02:23:27;101341.93;;;12.26;94.25
60817;BME280;51921;51.518;-3.188;2023-08-06T02:25:57;101346.03;;;12.80;91.16
60817;BME280;51921;51.518;-3.188;2023-08-06T02:28:17;101341.56;;;13.07;90.20
60817;BME280;51921;51.518;-3.188;2023-08-06T02:30:49;101338.15;;;12.02;93.73
60817;BME280;51921;51.518;-3.188;2023-08-06T02:33:08;101340.18;;;12.77;92.86
60817;BME280;51921;51.518;-3.188;2023-08-06T02:35:33;101338.04;;;13.15;87.98
60817;BME280;51921;51.518;-3.188;2023-08-06T02:37:58;101338.51;;;12.35;91.77
60817;BME280;51921;51.518;-3.188;2023-08-06T02:40:24;101338.79;;;12.88;90.14
60817;BME280;51921;51.518;-3.188;2023-08-06T02:42:49;101336.00;;;12.30;93.18
60817;BME280;51921;51.518;-3.188;2023-08-06T02:45:15;101334.18;;;11.97;95.45
60817;BME280;51921;51.518;-3.188;2023-08-06T02:47:40;101335.60;;;13.79;87.12
60817;BME280;51921;51.518;-3.188;2023-08-06T02:50:06;101339.69;;;13.22;89.02
60817;BME280;51921;51.518;-3.188;2023-08-06T02:52:31;101346.38;;;13.26;88.45
60817;BME280;51921;51.518;-3.188;2023-08-06T02:54:56;101347.23;;;12.53;90.14
60817;BME280;51921;51.518;-3.188;2023-08-06T02:57:22;101348.21;;;12.87;87.97
60817;BME280;51921;51.518;-3.188;2023-08-06T02:59:47;101349.05;;;12.00;92.05
60817;BME280;51921;51.518;-3.188;2023-08-06T03:02:13;101344.75;;;11.65;92.61
60817;BME280;51921;51.518;-3.188;2023-08-06T03:04:38;101344.78;;;12.05;93.89
60817;BME280;51921;51.518;-3.188;2023-08-06T03:07:04;101350.25;;;13.21;87.47
60817;BME280;51921;51.518;-3.188;2023-08-06T03:09:29;101349.80;;;13.18;85.78
60817;BME280;51921;51.518;-3.188;2023-08-06T03:11:55;101344.55;;;12.04;92.55
60817;BME280;51921;51.518;-3.188;2023-08-06T03:14:20;101346.60;;;12.66;89.71
60817;BME280;51921;51.518;-3.188;2023-08-06T03:16:45;101344.49;;;13.90;84.64
60817;BME280;51921;51.518;-3.188;2023-08-06T03:19:11;101345.84;;;12.60;88.60
60817;BME280;51921;51.518;-3.188;2023-08-06T03:21:36;101344.63;;;12.04;94.92
60817;BME280;51921;51.518;-3.188;2023-08-06T03:24:02;101342.44;;;11.77;96.38
60817;BME280;51921;51.518;-3.188;2023-08-06T03:26:27;101341.02;;;10.62;100.00
60817;BME280;51921;51.518;-3.188;2023-08-06T03:28:53;101336.37;;;11.44;100.00
60817;BME280;51921;51.518;-3.188;2023-08-06T03:31:18;101336.04;;;10.40;100.00
60817;BME280;51921;51.518;-3.188;2023-08-06T03:33:44;101332.52;;;9.83;100.00
60817;BME280;51921;51.518;-3.188;2023-08-06T03:36:09;101328.24;;;11.24;100.00
60817;BME280;51921;51.518;-3.188;2023-08-06T03:38:35;101334.63;;;9.78;100.00
60817;BME280;51921;51.518;-3.188;2023-08-06T03:41:00;101334.17;;;10.80;100.00
60817;BME280;51921;51.518;-3.188;2023-08-06T03:43:26;101337.25;;;10.05;100.00
60817;BME280;51921;51.518;-3.188;2023-08-06T03:45:51;101339.66;;;10.46;100.00
60817;BME280;51921;51.518;-3.188;2023-08-06T03:48:17;101339.43;;;10.39;100.00
60817;BME280;51921;51.518;-3.188;2023-08-06T03:50:42;101338.70;;;11.09;100.00
60817;BME280;51921;51.518;-3.188;2023-08-06T03:53:08;101340.51;;;11.62;100.00
60817;BME280;51921;51.518;-3.188;2023-08-06T03:55:33;101343.99;;;11.48;100.00
60817;BME280;51921;51.518;-3.188;2023-08-06T03:57:58;101349.57;;;11.21;100.00
60817;BME280;51921;51.518;-3.188;2023-08-06T04:00:24;101354.47;;;10.69;100.00
60817;BME280;51921;51.518;-3.188;2023-08-06T04:02:49;101353.35;;;11.59;100.00
60817;BME280;51921;51.518;-3.188;2023-08-06T04:05:15;101352.44;;;11.49;100.00
60817;BME280;51921;51.518;-3.188;2023-08-06T04:07:40;101353.07;;;12.20;97.40
60817;BME280;51921;51.518;-3.188;2023-08-06T04:10:06;101351.21;;;11.59;96.73
60817;BME280;51921;51.518;-3.188;2023-08-06T04:12:31;101352.41;;;11.27;99.34
60817;BME280;51921;51.518;-3.188;2023-08-06T04:14:58;101354.42;;;11.88;96.45
60817;BME280;51921;51.518;-3.188;2023-08-06T04:17:22;101354.26;;;12.24;94.58
60817;BME280;51921;51.518;-3.188;2023-08-06T04:19:48;101353.63;;;12.25;94.78
60817;BME280;51921;51.518;-3.188;2023-08-06T04:22:13;101349.16;;;11.86;96.58
60817;BME280;51921;51.518;-3.188;2023-08-06T04:24:38;101350.86;;;11.42;96.33
60817;BME280;51921;51.518;-3.188;2023-08-06T04:27:04;101353.75;;;11.12;99.30
60817;BME280;51921;51.518;-3.188;2023-08-06T04:29:29;101356.03;;;11.82;94.20
60817;BME280;51921;51.518;-3.188;2023-08-06T04:31:55;101360.07;;;10.84;100.00
60817;BME280;51921;51.518;-3.188;2023-08-06T04:34:20;101361.27;;;11.75;97.31
60817;BME280;51921;51.518;-3.188;2023-08-06T04:36:45;101359.03;;;11.50;97.21
60817;BME280;51921;51.518;-3.188;2023-08-06T04:39:11;101365.80;;;11.99;93.18
60817;BME280;51921;51.518;-3.188;2023-08-06T04:41:36;101368.41;;;11.55;100.00
60817;BME280;51921;51.518;-3.188;2023-08-06T04:44:02;101370.02;;;12.53;95.45
60817;BME280;51921;51.518;-3.188;2023-08-06T04:46:27;101373.10;;;11.28;99.35
60817;BME280;51921;51.518;-3.188;2023-08-06T04:48:53;101377.30;;;10.89;100.00
60817;BME280;51921;51.518;-3.188;2023-08-06T04:51:18;101384.92;;;10.79;100.00
60817;BME280;51921;51.518;-3.188;2023-08-06T04:53:44;101389.34;;;11.50;100.00
60817;BME280;51921;51.518;-3.188;2023-08-06T04:56:09;101391.41;;;11.25;100.00
60817;BME280;51921;51.518;-3.188;2023-08-06T04:58:35;101396.55;;;11.20;100.00
60817;BME280;51921;51.518;-3.188;2023-08-06T05:01:00;101394.45;;;11.40;97.42
60817;BME280;51921;51.518;-3.188;2023-08-06T05:03:26;101394.56;;;11.79;98.77
60817;BME280;51921;51.518;-3.188;2023-08-06T05:05:51;101395.78;;;13.06;90.94
60817;BME280;51921;51.518;-3.188;2023-08-06T05:08:17;101396.39;;;11.65;95.97
60817;BME280;51921;51.518;-3.188;2023-08-06T05:10:42;101400.46;;;12.43;96.53
60817;BME280;51921;51.518;-3.188;2023-08-06T05:13:07;101403.22;;;11.42;97.78
60817;BME280;51921;51.518;-3.188;2023-08-06T05:15:33;101401.14;;;12.44;94.19
60817;BME280;51921;51.518;-3.188;2023-08-06T05:17:58;101405.87;;;11.87;96.67
60817;BME280;51921;51.518;-3.188;2023-08-06T05:20:24;101405.11;;;12.12;92.39
60817;BME280;51921;51.518;-3.188;2023-08-06T05:22:49;101408.71;;;11.40;97.77
60817;BME280;51921;51.518;-3.188;2023-08-06T05:25:15;101408.97;;;11.63;99.71
60817;BME280;51921;51.518;-3.188;2023-08-06T05:27:40;101412.64;;;11.63;100.00
60817;BME280;51921;51.518;-3.188;2023-08-06T05:30:07;101413.39;;;10.93;100.00
60817;BME280;51921;51.518;-3.188;2023-08-06T05:32:31;101416.55;;;9.69;100.00
60817;BME280;51921;51.518;-3.188;2023-08-06T05:34:57;101414.19;;;10.79;100.00
60817;BME280;51921;51.518;-3.188;2023-08-06T05:37:22;101419.32;;;10.10;100.00
60817;BME280;51921;51.518;-3.188;2023-08-06T05:39:48;101422.91;;;10.60;100.00
60817;BME280;51921;51.518;-3.188;2023-08-06T05:42:13;101422.80;;;10.52;100.00
60817;BME280;51921;51.518;-3.188;2023-08-06T05:44:39;101428.24;;;9.59;100.00
60817;BME280;51921;51.518;-3.188;2023-08-06T05:47:04;101429.90;;;10.31;100.00
60817;BME280;51921;51.518;-3.188;2023-08-06T05:49:30;101429.13;;;10.32;100.00
60817;BME280;51921;51.518;-3.188;2023-08-06T05:51:55;101430.12;;;11.05;100.00
60817;BME280;51921;51.518;-3.188;2023-08-06T05:54:21;101436.88;;;11.03;100.00
60817;BME280;51921;51.518;-3.188;2023-08-06T05:56:46;101442.31;;;10.26;100.00
60817;BME280;51921;51.518;-3.188;2023-08-06T05:59:11;101445.66;;;11.80;100.00
60817;BME280;51921;51.518;-3.188;2023-08-06T06:01:37;101449.04;;;11.02;100.00
60817;BME280;51921;51.518;-3.188;2023-08-06T06:04:03;101450.86;;;10.99;100.00
60817;BME280;51921;51.518;-3.188;2023-08-06T06:06:28;101455.50;;;10.16;100.00
60817;BME280;51921;51.518;-3.188;2023-08-06T06:08:53;101460.26;;;10.90;100.00
60817;BME280;51921;51.518;-3.188;2023-08-06T06:11:19;101456.20;;;11.31;100.00
60817;BME280;51921;51.518;-3.188;2023-08-06T06:13:44;101460.42;;;10.90;100.00
60817;BME280;51921;51.518;-3.188;2023-08-06T06:16:10;101459.46;;;11.59;100.00
60817;BME280;51921;51.518;-3.188;2023-08-06T06:18:35;101463.23;;;10.21;100.00
60817;BME280;51921;51.518;-3.188;2023-08-06T06:21:01;101467.74;;;9.91;100.00
60817;BME280;51921;51.518;-3.188;2023-08-06T06:23:26;101464.75;;;11.18;100.00
60817;BME280;51921;51.518;-3.188;2023-08-06T06:25:52;101466.13;;;11.15;100.00
60817;BME280;51921;51.518;-3.188;2023-08-06T06:28:17;101465.98;;;11.41;100.00
60817;BME280;51921;51.518;-3.188;2023-08-06T06:30:43;101466.51;;;9.89;100.00
60817;BME280;51921;51.518;-3.188;2023-08-06T06:33:08;101470.10;;;10.60;100.00
60817;BME280;51921;51.518;-3.188;2023-08-06T06:35:34;101465.36;;;11.80;100.00
60817;BME280;51921;51.518;-3.188;2023-08-06T06:37:59;101464.38;;;11.69;100.00
60817;BME280;51921;51.518;-3.188;2023-08-06T06:40:25;101467.66;;;11.86;100.00
60817;BME280;51921;51.518;-3.188;2023-08-06T06:42:50;101468.91;;;12.89;100.00
60817;BME280;51921;51.518;-3.188;2023-08-06T06:45:16;101472.42;;;11.67;100.00
60817;BME280;51921;51.518;-3.188;2023-08-06T06:47:41;101475.04;;;11.65;100.00
60817;BME280;51921;51.518;-3.188;2023-08-06T06:50:07;101475.58;;;12.32;100.00
60817;BME280;51921;51.518;-3.188;2023-08-06T06:52:32;101480.02;;;13.53;98.88
60817;BME280;51921;51.518;-3.188;2023-08-06T06:54:57;101478.19;;;12.62;100.00
60817;BME280;51921;51.518;-3.188;2023-08-06T06:57:23;101480.46;;;13.29;98.69
60817;BME280;51921;51.518;-3.188;2023-08-06T06:59:48;101476.68;;;12.78;100.00
60817;BME280;51921;51.518;-3.188;2023-08-06T07:02:14;101475.08;;;14.86;92.60
60817;BME280;51921;51.518;-3.188;2023-08-06T07:04:39;101479.44;;;14.03;94.05
60817;BME280;51921;51.518;-3.188;2023-08-06T07:07:05;101484.46;;;13.49;99.51
60817;BME280;51921;51.518;-3.188;2023-08-06T07:09:30;101486.16;;;12.59;100.00
60817;BME280;51921;51.518;-3.188;2023-08-06T07:11:55;101486.48;;;12.64;100.00
60817;BME280;51921;51.518;-3.188;2023-08-06T07:14:21;101487.25;;;12.65;100.00
60817;BME280;51921;51.518;-3.188;2023-08-06T07:16:46;101490.86;;;11.93;100.00
60817;BME280;51921;51.518;-3.188;2023-08-06T07:19:12;101494.65;;;12.24;100.00
60817;BME280;51921;51.518;-3.188;2023-08-06T07:21:37;101490.52;;;12.43;100.00
60817;BME280;51921;51.518;-3.188;2023-08-06T07:24:03;101494.80;;;12.21;100.00
60817;BME280;51921;51.518;-3.188;2023-08-06T07:26:28;101490.76;;;12.14;100.00
60817;BME280;51921;51.518;-3.188;2023-08-06T07:28:53;101488.62;;;12.76;100.00
60817;BME280;51921;51.518;-3.188;2023-08-06T07:31:19;101486.44;;;13.05;100.00
60817;BME280;51921;51.518;-3.188;2023-08-06T07:33:44;101492.68;;;14.68;100.00
60817;BME280;51921;51.518;-3.188;2023-08-06T07:36:11;101488.95;;;16.62;84.58
60817;BME280;51921;51.518;-3.188;2023-08-06T07:38:36;101492.66;;;16.48;82.86
60817;BME280;51921;51.518;-3.188;2023-08-06T07:41:01;101491.85;;;17.34;72.92
60817;BME280;51921;51.518;-3.188;2023-08-06T07:43:26;101491.81;;;19.33;65.81
60817;BME280;51921;51.518;-3.188;2023-08-06T07:45:51;101497.53;;;19.31;62.83
60817;BME280;51921;51.518;-3.188;2023-08-06T07:48:16;101494.34;;;19.25;61.31
60817;BME280;51921;51.518;-3.188;2023-08-06T07:50:42;101490.37;;;19.23;62.73
60817;BME280;51921;51.518;-3.188;2023-08-06T07:53:07;101489.96;;;19.16;61.09
60817;BME280;51921;51.518;-3.188;2023-08-06T07:55:32;101483.02;;;18.40;61.75
60817;BME280;51921;51.518;-3.188;2023-08-06T07:57:58;101491.34;;;18.85;62.48
60817;BME280;51921;51.518;-3.188;2023-08-06T08:00:23;101495.90;;;18.97;60.32
60817;BME280;51921;51.518;-3.188;2023-08-06T08:02:50;101496.63;;;18.26;65.72
60817;BME280;51921;51.518;-3.188;2023-08-06T08:05:14;101496.91;;;18.64;61.43
60817;BME280;51921;51.518;-3.188;2023-08-06T08:07:39;101498.18;;;19.44;58.94
60817;BME280;51921;51.518;-3.188;2023-08-06T08:10:06;101500.13;;;18.37;60.07
60817;BME280;51921;51.518;-3.188;2023-08-06T08:12:30;101499.83;;;17.62;64.80
60817;BME280;51921;51.518;-3.188;2023-08-06T08:14:55;101498.77;;;16.50;67.35
60817;BME280;51921;51.518;-3.188;2023-08-06T08:17:20;101498.25;;;16.38;69.41
60817;BME280;51921;51.518;-3.188;2023-08-06T08:19:46;101497.09;;;17.25;67.50
60817;BME280;51921;51.518;-3.188;2023-08-06T08:22:11;101490.89;;;17.08;66.85
60817;BME280;51921;51.518;-3.188;2023-08-06T08:24:37;101496.40;;;16.99;66.22
60817;BME280;51921;51.518;-3.188;2023-08-06T08:27:02;101496.74;;;18.66;60.90
60817;BME280;51921;51.518;-3.188;2023-08-06T08:29:27;101496.49;;;18.10;63.33
60817;BME280;51921;51.518;-3.188;2023-08-06T08:31:52;101495.54;;;18.55;61.01
60817;BME280;51921;51.518;-3.188;2023-08-06T08:34:18;101495.79;;;18.53;60.61
60817;BME280;51921;51.518;-3.188;2023-08-06T08:36:43;101493.29;;;19.60;56.04
60817;BME280;51921;51.518;-3.188;2023-08-06T08:39:09;101497.43;;;17.75;58.70
60817;BME280;51921;51.518;-3.188;2023-08-06T08:41:36;101500.45;;;16.99;65.32
60817;BME280;51921;51.518;-3.188;2023-08-06T08:44:00;101499.44;;;14.42;71.18
60817;BME280;51921;51.518;-3.188;2023-08-06T08:46:27;101500.42;;;17.19;63.79
60817;BME280;51921;51.518;-3.188;2023-08-06T08:48:50;101507.37;;;15.80;68.13
60817;BME280;51921;51.518;-3.188;2023-08-06T08:51:16;101507.54;;;15.18;70.33
60817;BME280;51921;51.518;-3.188;2023-08-06T08:53:41;101498.11;;;16.32;67.04
60817;BME280;51921;51.518;-3.188;2023-08-06T08:56:06;101517.69;;;14.98;71.53
60817;BME280;51921;51.518;-3.188;2023-08-06T08:58:32;101509.10;;;16.69;65.71
60817;BME280;51921;51.518;-3.188;2023-08-06T09:00:57;101511.64;;;15.83;69.37
60817;BME280;51921;51.518;-3.188;2023-08-06T09:03:22;101511.77;;;15.81;69.79
60817;BME280;51921;51.518;-3.188;2023-08-06T09:05:50;101508.74;;;17.13;61.55
60817;BME280;51921;51.518;-3.188;2023-08-06T09:08:17;101509.29;;;16.36;64.24
60817;BME280;51921;51.518;-3.188;2023-08-06T09:10:39;101510.69;;;16.80;63.07
60817;BME280;51921;51.518;-3.188;2023-08-06T09:13:03;101509.71;;;16.84;62.65
60817;BME280;51921;51.518;-3.188;2023-08-06T09:15:29;101509.82;;;18.01;59.50
60817;BME280;51921;51.518;-3.188;2023-08-06T09:17:54;101509.87;;;17.71;56.26
60817;BME280;51921;51.518;-3.188;2023-08-06T09:20:19;101516.98;;;18.32;54.99
60817;BME280;51921;51.518;-3.188;2023-08-06T09:22:44;101518.69;;;17.28;56.41
60817;BME280;51921;51.518;-3.188;2023-08-06T09:25:10;101514.32;;;16.66;57.06
60817;BME280;51921;51.518;-3.188;2023-08-06T09:27:35;101518.70;;;19.08;55.33
60817;BME280;51921;51.518;-3.188;2023-08-06T09:30:01;101517.85;;;17.82;58.98
60817;BME280;51921;51.518;-3.188;2023-08-06T09:32:26;101516.50;;;16.64;61.36
60817;BME280;51921;51.518;-3.188;2023-08-06T09:34:56;101517.91;;;15.48;65.43
60817;BME280;51921;51.518;-3.188;2023-08-06T09:37:16;101520.26;;;15.83;66.32
60817;BME280;51921;51.518;-3.188;2023-08-06T09:39:42;101522.15;;;14.94;70.28
60817;BME280;51921;51.518;-3.188;2023-08-06T09:42:07;101531.92;;;14.35;76.65
60817;BME280;51921;51.518;-3.188;2023-08-06T09:44:33;101532.69;;;14.29;78.25
60817;BME280;51921;51.518;-3.188;2023-08-06T09:46:59;101533.15;;;14.30;78.33
60817;BME280;51921;51.518;-3.188;2023-08-06T09:49:26;101537.29;;;14.85;76.92
60817;BME280;51921;51.518;-3.188;2023-08-06T09:51:49;101532.78;;;13.34;81.13
60817;BME280;51921;51.518;-3.188;2023-08-06T09:54:15;101535.18;;;15.39;74.66
60817;BME280;51921;51.518;-3.188;2023-08-06T09:56:40;101535.34;;;16.48;68.61
60817;BME280;51921;51.518;-3.188;2023-08-06T09:59:05;101536.87;;;14.49;69.57
60817;BME280;51921;51.518;-3.188;2023-08-06T10:01:31;101531.88;;;15.83;67.87
60817;BME280;51921;51.518;-3.188;2023-08-06T10:03:58;101535.62;;;15.42;69.59
60817;BME280;51921;51.518;-3.188;2023-08-06T10:06:22;101537.70;;;14.22;74.01
60817;BME280;51921;51.518;-3.188;2023-08-06T10:08:46;101537.63;;;16.24;68.62
60817;BME280;51921;51.518;-3.188;2023-08-06T10:11:12;101542.00;;;15.65;68.38
60817;BME280;51921;51.518;-3.188;2023-08-06T10:13:38;101542.41;;;16.23;65.13
60817;BME280;51921;51.518;-3.188;2023-08-06T10:16:03;101534.93;;;17.37;62.10
60817;BME280;51921;51.518;-3.188;2023-08-06T10:18:28;101546.85;;;14.35;69.96
60817;BME280;51921;51.518;-3.188;2023-08-06T10:20:53;101543.09;;;16.54;63.84
60817;BME280;51921;51.518;-3.188;2023-08-06T10:23:18;101541.30;;;16.49;63.55
60817;BME280;51921;51.518;-3.188;2023-08-06T10:25:44;101541.24;;;16.37;64.61
60817;BME280;51921;51.518;-3.188;2023-08-06T10:28:10;101549.42;;;15.10;67.55
60817;BME280;51921;51.518;-3.188;2023-08-06T10:30:41;101540.65;;;17.01;63.47
60817;BME280;51921;51.518;-3.188;2023-08-06T10:33:01;101544.50;;;16.97;62.58
60817;BME280;51921;51.518;-3.188;2023-08-06T10:35:30;101535.48;;;16.05;66.18
60817;BME280;51921;51.518;-3.188;2023-08-06T10:37:50;101549.50;;;14.33;74.68
60817;BME280;51921;51.518;-3.188;2023-08-06T10:40:21;101557.11;;;14.79;69.51
60817;BME280;51921;51.518;-3.188;2023-08-06T10:42:41;101556.31;;;15.89;67.54
60817;BME280;51921;51.518;-3.188;2023-08-06T10:45:12;101559.38;;;14.89;71.88
60817;BME280;51921;51.518;-3.188;2023-08-06T10:47:38;101558.50;;;16.69;65.49
60817;BME280;51921;51.518;-3.188;2023-08-06T10:49:57;101559.93;;;16.32;69.79
60817;BME280;51921;51.518;-3.188;2023-08-06T10:52:23;101557.83;;;16.23;72.18
60817;BME280;51921;51.518;-3.188;2023-08-06T10:54:48;101557.45;;;16.78;69.49
60817;BME280;51921;51.518;-3.188;2023-08-06T10:57:13;101557.84;;;17.32;66.91
60817;BME280;51921;51.518;-3.188;2023-08-06T10:59:40;101555.02;;;16.25;71.93
60817;BME280;51921;51.518;-3.188;2023-08-06T11:02:04;101559.46;;;16.65;65.80
60817;BME280;51921;51.518;-3.188;2023-08-06T11:04:30;101551.24;;;17.81;62.20
60817;BME280;51921;51.518;-3.188;2023-08-06T11:06:55;101549.95;;;17.58;63.27
60817;BME280;51921;51.518;-3.188;2023-08-06T11:09:20;101542.80;;;17.70;61.49
60817;BME280;51921;51.518;-3.188;2023-08-06T11:11:45;101547.81;;;18.55;61.48
60817;BME280;51921;51.518;-3.188;2023-08-06T11:14:15;101543.11;;;18.23;58.50
60817;BME280;51921;51.518;-3.188;2023-08-06T11:16:36;101550.28;;;17.46;59.65
60817;BME280;51921;51.518;-3.188;2023-08-06T11:19:01;101543.35;;;15.25;65.57
60817;BME280;51921;51.518;-3.188;2023-08-06T11:21:27;101542.96;;;15.97;67.21
60817;BME280;51921;51.518;-3.188;2023-08-06T11:23:53;101552.54;;;17.04;66.88
60817;BME280;51921;51.518;-3.188;2023-08-06T11:26:19;101550.54;;;15.84;72.33
60817;BME280;51921;51.518;-3.188;2023-08-06T11:28:43;101553.92;;;15.40;74.47
60817;BME280;51921;51.518;-3.188;2023-08-06T11:33:33;101560.64;;;14.53;77.64
60817;BME280;51921;51.518;-3.188;2023-08-06T11:35:59;101557.23;;;15.13;71.87
60817;BME280;51921;51.518;-3.188;2023-08-06T11:38:25;101555.86;;;15.56;67.53
60817;BME280;51921;51.518;-3.188;2023-08-06T11:40:50;101556.40;;;15.78;70.67
60817;BME280;51921;51.518;-3.188;2023-08-06T11:43:15;101552.67;;;15.90;70.50
60817;BME280;51921;51.518;-3.188;2023-08-06T11:45:40;101558.80;;;15.11;72.70
60817;BME280;51921;51.518;-3.188;2023-08-06T11:48:06;101557.51;;;15.21;76.10
60817;BME280;51921;51.518;-3.188;2023-08-06T11:50:31;101549.00;;;15.89;72.20
60817;BME280;51921;51.518;-3.188;2023-08-06T11:52:57;101550.83;;;15.78;67.30
60817;BME280;51921;51.518;-3.188;2023-08-06T11:55:23;101543.34;;;16.72;64.18
60817;BME280;51921;51.518;-3.188;2023-08-06T11:57:47;101543.41;;;15.75;64.67
60817;BME280;51921;51.518;-3.188;2023-08-06T12:00:14;101542.40;;;16.19;64.22
60817;BME280;51921;51.518;-3.188;2023-08-06T12:02:39;101545.90;;;16.25;64.76
60817;BME280;51921;51.518;-3.188;2023-08-06T12:05:09;101538.55;;;16.76;65.47
60817;BME280;51921;51.518;-3.188;2023-08-06T12:07:29;101535.78;;;16.69;62.63
60817;BME280;51921;51.518;-3.188;2023-08-06T12:09:53;101530.60;;;17.93;60.28
60817;BME280;51921;51.518;-3.188;2023-08-06T12:12:19;101535.16;;;17.10;63.54
60817;BME280;51921;51.518;-3.188;2023-08-06T12:14:44;101536.55;;;16.96;61.97
60817;BME280;51921;51.518;-3.188;2023-08-06T12:17:10;101539.19;;;15.92;63.19
60817;BME280;51921;51.518;-3.188;2023-08-06T12:19:36;101535.71;;;15.83;61.02
60817;BME280;51921;51.518;-3.188;2023-08-06T12:22:00;101540.20;;;15.88;60.71
60817;BME280;51921;51.518;-3.188;2023-08-06T12:24:26;101545.02;;;15.73;58.85
60817;BME280;51921;51.518;-3.188;2023-08-06T12:26:51;101545.66;;;15.44;61.87
60817;BME280;51921;51.518;-3.188;2023-08-06T12:29:16;101543.20;;;15.07;61.51